createdAt,value
2023-05-14T00:00:36.373Z,642.00
2023-05-14T00:01:36.400Z,644.00
2023-05-14T00:02:36.484Z,648.00
2023-05-14T00:03:36.495Z,647.00
2023-05-14T00:04:36.565Z,646.00
2023-05-14T00:05:36.425Z,644.00
2023-05-14T00:06:36.454Z,645.00
2023-05-14T00:07:36.456Z,646.00
2023-05-14T00:08:36.472Z,647.00
2023-05-14T00:09:36.482Z,646.00
2023-05-14T00:10:36.525Z,645.00
2023-05-14T00:11:36.535Z,647.00
2023-05-14T00:12:36.529Z,647.00
2023-05-14T00:13:36.538Z,645.00
2023-05-14T00:14:36.555Z,646.00
2023-05-14T00:15:36.578Z,644.00
2023-05-14T00:16:36.655Z,644.00
2023-05-14T00:17:36.637Z,642.00
2023-05-14T00:18:36.637Z,643.00
2023-05-14T00:19:36.639Z,642.00
2023-05-14T00:20:36.643Z,641.00
2023-05-14T00:21:36.662Z,638.00
2023-05-14T00:22:36.667Z,639.00
2023-05-14T00:23:36.680Z,641.00
2023-05-14T00:24:36.727Z,641.00
2023-05-14T00:25:36.713Z,642.00
2023-05-14T00:26:36.748Z,640.00
2023-05-14T00:27:36.756Z,640.00
2023-05-14T00:28:36.790Z,642.00
2023-05-14T00:29:36.847Z,641.00
2023-05-14T00:30:36.798Z,639.00
2023-05-14T00:31:36.881Z,639.00
2023-05-14T00:32:36.867Z,638.00
2023-05-14T00:33:36.864Z,637.00
2023-05-14T00:34:36.899Z,638.00
2023-05-14T00:35:36.870Z,635.00
2023-05-14T00:36:36.889Z,636.00
2023-05-14T00:37:36.909Z,635.00
2023-05-14T00:38:36.941Z,632.00
2023-05-14T00:39:36.939Z,633.00
2023-05-14T00:40:36.962Z,634.00
2023-05-14T00:41:36.967Z,634.00
2023-05-14T00:42:36.984Z,635.00
2023-05-14T00:43:37.007Z,637.00
2023-05-14T00:44:37.018Z,637.00
2023-05-14T00:45:37.040Z,637.00
2023-05-14T00:46:37.063Z,632.00
2023-05-14T00:47:37.090Z,631.00
2023-05-14T00:48:37.085Z,631.00
2023-05-14T00:49:37.088Z,631.00
2023-05-14T00:50:37.109Z,632.00
2023-05-14T00:51:37.137Z,639.00
2023-05-14T00:52:37.132Z,639.00
2023-05-14T00:53:37.167Z,636.00
2023-05-14T00:54:37.165Z,639.00
2023-05-14T00:55:37.184Z,638.00
2023-05-14T00:56:37.206Z,639.00
2023-05-14T00:57:37.219Z,639.00
2023-05-14T00:58:37.231Z,640.00
2023-05-14T00:59:37.267Z,638.00
2023-05-14T01:00:37.335Z,637.00
2023-05-14T01:01:37.295Z,638.00
2023-05-14T01:02:37.379Z,638.00
2023-05-14T01:03:37.456Z,640.00
2023-05-14T01:04:37.352Z,641.00
2023-05-14T01:05:37.355Z,639.00
2023-05-14T01:06:37.364Z,638.00
2023-05-14T01:07:37.400Z,639.00
2023-05-14T01:08:37.426Z,639.00
2023-05-14T01:09:37.447Z,639.00
2023-05-14T01:10:37.488Z,639.00
2023-05-14T01:11:37.470Z,638.00
2023-05-14T01:12:37.469Z,637.00
2023-05-14T01:13:37.500Z,635.00
2023-05-14T01:14:37.512Z,634.00
2023-05-14T01:15:37.555Z,635.00
2023-05-14T01:16:37.560Z,634.00
2023-05-14T01:17:37.587Z,634.00
2023-05-14T01:18:37.669Z,633.00
2023-05-14T01:19:37.585Z,637.00
2023-05-14T01:20:37.620Z,636.00
2023-05-14T01:21:37.623Z,637.00
2023-05-14T01:22:37.626Z,636.00
2023-05-14T01:23:37.653Z,635.00
2023-05-14T01:24:37.663Z,636.00
2023-05-14T01:25:37.664Z,637.00
2023-05-14T01:26:37.715Z,637.00
2023-05-14T01:27:37.694Z,640.00
2023-05-14T01:28:37.705Z,639.00
2023-05-14T01:29:37.718Z,637.00
2023-05-14T01:30:37.730Z,637.00
2023-05-14T01:31:37.774Z,637.00
2023-05-14T01:32:37.758Z,638.00
2023-05-14T01:33:37.798Z,638.00
2023-05-14T01:34:37.778Z,639.00
2023-05-14T01:35:37.793Z,640.00
2023-05-14T01:36:37.812Z,641.00
2023-05-14T01:37:37.815Z,640.00
2023-05-14T01:38:37.837Z,639.00
2023-05-14T01:39:37.859Z,640.00
2023-05-14T01:40:37.851Z,642.00
2023-05-14T01:41:37.862Z,644.00
2023-05-14T01:42:37.860Z,646.00
2023-05-14T01:43:37.940Z,647.00
2023-05-14T01:44:37.905Z,646.00
2023-05-14T01:45:37.919Z,645.00
2023-05-14T01:46:38.125Z,645.00
2023-05-14T01:47:37.987Z,642.00
2023-05-14T01:48:37.970Z,640.00
2023-05-14T01:49:37.990Z,639.00
2023-05-14T01:50:38.008Z,641.00
2023-05-14T01:51:38.035Z,642.00
2023-05-14T01:52:38.047Z,646.00
2023-05-14T01:53:38.069Z,648.00
2023-05-14T01:54:38.083Z,649.00
2023-05-14T01:55:38.107Z,648.00
2023-05-14T01:56:38.117Z,643.00
2023-05-14T01:57:38.133Z,642.00
2023-05-14T01:58:38.149Z,644.00
2023-05-14T01:59:38.172Z,643.00
2023-05-14T02:00:38.210Z,642.00
2023-05-14T02:01:38.279Z,641.00
2023-05-14T02:02:38.275Z,639.00
2023-05-14T02:03:38.291Z,639.00
2023-05-14T02:04:38.346Z,640.00
2023-05-14T02:05:38.333Z,640.00
2023-05-14T02:06:38.350Z,638.00
2023-05-14T02:07:38.380Z,637.00
2023-05-14T02:08:38.420Z,640.00
2023-05-14T02:09:38.417Z,638.00
2023-05-14T02:10:38.439Z,634.00
2023-05-14T02:11:38.464Z,637.00
2023-05-14T02:12:38.478Z,639.00
2023-05-14T02:13:38.507Z,639.00
2023-05-14T02:14:38.514Z,639.00
2023-05-14T02:15:38.584Z,639.00
2023-05-14T02:16:38.563Z,640.00
2023-05-14T02:17:38.674Z,640.00
2023-05-14T02:18:38.658Z,643.00
2023-05-14T02:19:38.648Z,641.00
2023-05-14T02:20:38.657Z,640.00
2023-05-14T02:21:38.679Z,639.00
2023-05-14T02:22:38.702Z,640.00
2023-05-14T02:23:41.836Z,638.00
2023-05-14T02:24:38.723Z,639.00
2023-05-14T02:25:38.730Z,640.00
2023-05-14T02:26:38.692Z,639.00
2023-05-14T02:27:38.683Z,641.00
2023-05-14T02:28:38.723Z,641.00
2023-05-14T02:29:38.712Z,642.00
2023-05-14T02:30:38.680Z,644.00
2023-05-14T02:31:38.672Z,644.00
2023-05-14T02:32:38.753Z,641.00
2023-05-14T02:33:38.661Z,644.00
2023-05-14T02:34:38.641Z,642.00
2023-05-14T02:35:38.647Z,641.00
2023-05-14T02:36:38.620Z,639.00
2023-05-14T02:37:38.644Z,636.00
2023-05-14T02:38:38.613Z,636.00
2023-05-14T02:39:38.643Z,637.00
2023-05-14T02:40:38.609Z,637.00
2023-05-14T02:41:38.594Z,636.00
2023-05-14T02:42:38.586Z,636.00
2023-05-14T02:43:38.592Z,638.00
2023-05-14T02:44:38.581Z,636.00
2023-05-14T02:45:38.590Z,635.00
2023-05-14T02:46:38.582Z,636.00
2023-05-14T02:47:38.605Z,638.00
2023-05-14T02:48:38.554Z,639.00
2023-05-14T02:49:38.544Z,639.00
2023-05-14T02:50:38.541Z,641.00
2023-05-14T02:51:38.548Z,640.00
2023-05-14T02:52:38.541Z,642.00
2023-05-14T02:53:38.533Z,644.00
2023-05-14T02:54:38.520Z,643.00
2023-05-14T02:55:38.511Z,644.00
2023-05-14T02:56:38.518Z,645.00
2023-05-14T02:57:38.506Z,644.00
2023-05-14T02:58:38.488Z,647.00
2023-05-14T02:59:38.495Z,647.00
2023-05-14T03:00:38.514Z,644.00
2023-05-14T03:01:38.489Z,643.00
2023-05-14T03:02:38.551Z,644.00
2023-05-14T03:03:38.453Z,645.00
2023-05-14T03:04:38.455Z,644.00
2023-05-14T03:05:38.457Z,643.00
2023-05-14T03:06:38.442Z,640.00
2023-05-14T03:07:38.429Z,640.00
2023-05-14T03:08:38.432Z,639.00
2023-05-14T03:09:38.577Z,638.00
2023-05-14T03:10:38.422Z,639.00
2023-05-14T03:11:38.419Z,638.00
2023-05-14T03:12:38.390Z,635.00
2023-05-14T03:13:38.395Z,635.00
2023-05-14T03:14:38.374Z,632.00
2023-05-14T03:15:38.373Z,634.00
2023-05-14T03:16:38.390Z,635.00
2023-05-14T03:17:38.411Z,637.00
2023-05-14T03:18:38.398Z,641.00
2023-05-14T03:19:38.337Z,640.00
2023-05-14T03:20:38.344Z,642.00
2023-05-14T03:21:38.346Z,640.00
2023-05-14T03:22:38.336Z,640.00
2023-05-14T03:23:38.351Z,641.00
2023-05-14T03:24:38.396Z,641.00
2023-05-14T03:25:38.419Z,641.00
2023-05-14T03:26:38.447Z,641.00
2023-05-14T03:27:38.473Z,639.00
2023-05-14T03:28:38.520Z,639.00
2023-05-14T03:29:38.561Z,637.00
2023-05-14T03:30:38.600Z,638.00
2023-05-14T03:31:38.607Z,636.00
2023-05-14T03:32:38.678Z,638.00
2023-05-14T03:33:38.661Z,640.00
2023-05-14T03:34:38.696Z,639.00
2023-05-14T03:35:38.751Z,640.00
2023-05-14T03:36:38.743Z,637.00
2023-05-14T03:37:38.778Z,637.00
2023-05-14T03:38:38.800Z,636.00
2023-05-14T03:39:38.836Z,637.00
2023-05-14T03:40:38.861Z,637.00
2023-05-14T03:41:38.880Z,637.00
2023-05-14T03:42:38.891Z,635.00
2023-05-14T03:43:38.922Z,636.00
2023-05-14T03:44:38.945Z,638.00
2023-05-14T03:45:38.993Z,637.00
2023-05-14T03:46:38.989Z,639.00
2023-05-14T03:47:39.062Z,639.00
2023-05-14T03:48:39.073Z,638.00
2023-05-14T03:49:39.064Z,638.00
2023-05-14T03:50:39.105Z,640.00
2023-05-14T03:51:39.168Z,638.00
2023-05-14T03:52:39.144Z,638.00
2023-05-14T03:53:39.190Z,640.00
2023-05-14T03:54:39.207Z,640.00
2023-05-14T03:55:39.241Z,639.00
2023-05-14T03:56:39.283Z,639.00
2023-05-14T03:57:39.281Z,641.00
2023-05-14T03:58:39.305Z,642.00
2023-05-14T03:59:39.320Z,642.00
2023-05-14T04:00:39.348Z,643.00
2023-05-14T04:01:39.388Z,644.00
2023-05-14T04:02:39.621Z,645.00
2023-05-14T04:03:39.513Z,645.00
2023-05-14T04:04:39.502Z,642.00
2023-05-14T04:05:39.476Z,643.00
2023-05-14T04:06:39.500Z,641.00
2023-05-14T04:07:39.559Z,641.00
2023-05-14T04:08:39.556Z,644.00
2023-05-14T04:09:39.588Z,643.00
2023-05-14T04:10:39.610Z,642.00
2023-05-14T04:11:39.646Z,641.00
2023-05-14T04:12:39.653Z,641.00
2023-05-14T04:13:39.678Z,642.00
2023-05-14T04:14:39.699Z,643.00
2023-05-14T04:15:39.724Z,641.00
2023-05-14T04:16:39.819Z,640.00
2023-05-14T04:17:39.810Z,640.00
2023-05-14T04:18:39.829Z,640.00
2023-05-14T04:19:39.822Z,641.00
2023-05-14T04:20:39.851Z,638.00
2023-05-14T04:21:39.903Z,634.00
2023-05-14T04:22:39.917Z,634.00
2023-05-14T04:23:39.935Z,636.00
2023-05-14T04:24:39.930Z,638.00
2023-05-14T04:25:39.962Z,638.00
2023-05-14T04:26:39.986Z,642.00
2023-05-14T04:27:40.004Z,643.00
2023-05-14T04:28:40.039Z,644.00
2023-05-14T04:29:40.056Z,643.00
2023-05-14T04:30:40.086Z,644.00
2023-05-14T04:31:40.158Z,646.00
2023-05-14T04:32:40.155Z,646.00
2023-05-14T04:33:40.201Z,646.00
2023-05-14T04:34:40.184Z,644.00
2023-05-14T04:35:40.224Z,642.00
2023-05-14T04:36:40.273Z,642.00
2023-05-14T04:37:40.258Z,639.00
2023-05-14T04:38:40.287Z,640.00
2023-05-14T04:39:40.310Z,639.00
2023-05-14T04:40:40.362Z,641.00
2023-05-14T04:41:40.384Z,641.00
2023-05-14T04:42:40.385Z,641.00
2023-05-14T04:43:40.415Z,640.00
2023-05-14T04:44:40.468Z,641.00
2023-05-14T04:45:40.532Z,639.00
2023-05-14T04:46:40.495Z,638.00
2023-05-14T04:47:40.582Z,638.00
2023-05-14T04:48:40.556Z,640.00
2023-05-14T04:49:40.576Z,642.00
2023-05-14T04:50:40.602Z,643.00
2023-05-14T04:51:40.638Z,642.00
2023-05-14T04:52:40.673Z,641.00
2023-05-14T04:53:40.682Z,643.00
2023-05-14T04:54:40.771Z,643.00
2023-05-14T04:55:40.712Z,643.00
2023-05-14T04:56:40.758Z,645.00
2023-05-14T04:57:40.765Z,648.00
2023-05-14T04:58:40.802Z,648.00
2023-05-14T04:59:40.834Z,648.00
2023-05-14T05:00:40.863Z,647.00
2023-05-14T05:01:40.977Z,645.00
2023-05-14T05:02:40.941Z,645.00
2023-05-14T05:03:40.977Z,645.00
2023-05-14T05:04:40.989Z,644.00
2023-05-14T05:05:41.010Z,645.00
2023-05-14T05:06:41.036Z,642.00
2023-05-14T05:07:41.126Z,644.00
2023-05-14T05:08:41.101Z,644.00
2023-05-14T05:09:41.152Z,645.00
2023-05-14T05:10:41.178Z,645.00
2023-05-14T05:11:41.559Z,647.00
2023-05-14T05:12:41.227Z,646.00
2023-05-14T05:13:41.255Z,645.00
2023-05-14T05:14:41.303Z,642.00
2023-05-14T05:15:41.305Z,643.00
2023-05-14T05:16:41.337Z,645.00
2023-05-14T05:17:41.388Z,648.00
2023-05-14T05:18:41.433Z,648.00
2023-05-14T05:19:44.290Z,648.00
2023-05-14T05:20:41.411Z,648.00
2023-05-14T05:21:41.409Z,644.00
2023-05-14T05:22:41.400Z,644.00
2023-05-14T05:23:41.385Z,644.00
2023-05-14T05:24:41.387Z,644.00
2023-05-14T05:25:41.381Z,642.00
2023-05-14T05:26:41.375Z,642.00
2023-05-14T05:27:41.356Z,641.00
2023-05-14T05:28:41.353Z,638.00
2023-05-14T05:29:41.359Z,636.00
2023-05-14T05:30:41.354Z,635.00
2023-05-14T05:31:41.424Z,634.00
2023-05-14T05:32:41.374Z,634.00
2023-05-14T05:33:41.339Z,635.00
2023-05-14T05:34:41.312Z,634.00
2023-05-14T05:35:41.310Z,631.00
2023-05-14T05:36:41.306Z,627.00
2023-05-14T05:37:41.305Z,627.00
2023-05-14T05:38:41.293Z,630.00
2023-05-14T05:39:41.298Z,635.00
2023-05-14T05:40:41.282Z,636.00
2023-05-14T05:41:41.266Z,636.00
2023-05-14T05:42:41.279Z,636.00
2023-05-14T05:43:41.267Z,639.00
2023-05-14T05:44:41.245Z,642.00
2023-05-14T05:45:41.267Z,642.00
2023-05-14T05:46:41.362Z,640.00
2023-05-14T05:47:41.302Z,641.00
2023-05-14T05:48:41.218Z,640.00
2023-05-14T05:49:41.209Z,641.00
2023-05-14T05:50:41.228Z,640.00
2023-05-14T05:51:41.206Z,638.00
2023-05-14T05:52:41.198Z,640.00
2023-05-14T05:53:41.206Z,641.00
2023-05-14T05:54:41.174Z,642.00
2023-05-14T05:55:41.212Z,640.00
2023-05-14T05:56:41.165Z,640.00
2023-05-14T05:57:41.158Z,639.00
2023-05-14T05:58:41.146Z,639.00
2023-05-14T05:59:41.151Z,638.00
2023-05-14T06:00:41.137Z,638.00
2023-05-14T06:01:41.198Z,636.00
2023-05-14T06:02:41.220Z,638.00
2023-05-14T06:03:41.130Z,635.00
2023-05-14T06:04:41.109Z,632.00
2023-05-14T06:05:41.206Z,629.00
2023-05-14T06:06:41.095Z,628.00
2023-05-14T06:07:41.097Z,628.00
2023-05-14T06:08:41.080Z,628.00
2023-05-14T06:09:41.071Z,628.00
2023-05-14T06:10:41.068Z,629.00
2023-05-14T06:11:41.070Z,630.00
2023-05-14T06:12:41.055Z,635.00
2023-05-14T06:13:41.036Z,635.00
2023-05-14T06:14:41.038Z,637.00
2023-05-14T06:15:41.048Z,637.00
2023-05-14T06:16:41.038Z,637.00
2023-05-14T06:17:41.083Z,635.00
2023-05-14T06:18:41.097Z,634.00
2023-05-14T06:19:41.088Z,632.00
2023-05-14T06:20:41.110Z,633.00
2023-05-14T06:21:41.153Z,633.00
2023-05-14T06:22:41.174Z,636.00
2023-05-14T06:23:41.193Z,636.00
2023-05-14T06:24:41.217Z,634.00
2023-05-14T06:25:41.267Z,633.00
2023-05-14T06:26:41.276Z,634.00
2023-05-14T06:27:41.299Z,632.00
2023-05-14T06:28:41.329Z,632.00
2023-05-14T06:29:41.353Z,631.00
2023-05-14T06:30:41.393Z,632.00
2023-05-14T06:31:41.428Z,634.00
2023-05-14T06:32:41.551Z,632.00
2023-05-14T06:33:41.467Z,632.00
2023-05-14T06:34:41.481Z,634.00
2023-05-14T06:35:41.517Z,635.00
2023-05-14T06:36:41.549Z,633.00
2023-05-14T06:37:41.576Z,633.00
2023-05-14T06:38:41.577Z,632.00
2023-05-14T06:39:41.617Z,633.00
2023-05-14T06:40:41.637Z,636.00
2023-05-14T06:41:41.666Z,635.00
2023-05-14T06:42:41.686Z,635.00
2023-05-14T06:43:41.709Z,639.00
2023-05-14T06:44:41.732Z,638.00
2023-05-14T06:45:41.758Z,641.00
2023-05-14T06:46:41.767Z,640.00
2023-05-14T06:47:41.823Z,641.00
2023-05-14T06:48:41.834Z,640.00
2023-05-14T06:49:41.836Z,641.00
2023-05-14T06:50:41.847Z,640.00
2023-05-14T06:51:41.873Z,642.00
2023-05-14T06:52:41.896Z,643.00
2023-05-14T06:53:41.904Z,644.00
2023-05-14T06:54:41.943Z,639.00
2023-05-14T06:55:41.958Z,637.00
2023-05-14T06:56:41.978Z,637.00
2023-05-14T06:57:41.999Z,634.00
2023-05-14T06:58:42.014Z,635.00
2023-05-14T06:59:42.044Z,637.00
2023-05-14T07:00:42.055Z,637.00
2023-05-14T07:01:42.175Z,638.00
2023-05-14T07:02:42.127Z,636.00
2023-05-14T07:03:42.116Z,636.00
2023-05-14T07:04:42.314Z,635.00
2023-05-14T07:05:42.174Z,635.00
2023-05-14T07:06:42.197Z,637.00
2023-05-14T07:07:42.207Z,635.00
2023-05-14T07:08:42.243Z,634.00
2023-05-14T07:09:42.268Z,634.00
2023-05-14T07:10:42.271Z,634.00
2023-05-14T07:11:42.300Z,634.00
2023-05-14T07:12:42.320Z,633.00
2023-05-14T07:13:42.343Z,636.00
2023-05-14T07:14:42.347Z,637.00
2023-05-14T07:15:42.370Z,638.00
2023-05-14T07:16:42.457Z,638.00
2023-05-14T07:17:42.451Z,636.00
2023-05-14T07:18:42.449Z,636.00
2023-05-14T07:19:42.442Z,635.00
2023-05-14T07:20:42.455Z,634.00
2023-05-14T07:21:42.478Z,636.00
2023-05-14T07:22:42.508Z,636.00
2023-05-14T07:23:42.497Z,637.00
2023-05-14T07:24:42.554Z,639.00
2023-05-14T07:25:42.533Z,641.00
2023-05-14T07:26:42.581Z,639.00
2023-05-14T07:27:42.575Z,638.00
2023-05-14T07:28:42.621Z,638.00
2023-05-14T07:29:42.616Z,638.00
2023-05-14T07:30:42.623Z,637.00
2023-05-14T07:31:42.730Z,638.00
2023-05-14T07:32:42.706Z,639.00
2023-05-14T07:33:42.677Z,638.00
2023-05-14T07:34:42.691Z,639.00
2023-05-14T07:35:42.694Z,638.00
2023-05-14T07:36:42.706Z,637.00
2023-05-14T07:37:42.728Z,639.00
2023-05-14T07:38:42.731Z,637.00
2023-05-14T07:39:42.734Z,638.00
2023-05-14T07:40:42.778Z,637.00
2023-05-14T07:41:42.772Z,635.00
2023-05-14T07:42:42.771Z,635.00
2023-05-14T07:43:42.784Z,637.00
2023-05-14T07:44:42.811Z,640.00
2023-05-14T07:45:42.825Z,639.00
2023-05-14T07:46:42.840Z,639.00
2023-05-14T07:47:42.942Z,643.00
2023-05-14T07:48:42.869Z,641.00
2023-05-14T07:49:42.817Z,644.00
2023-05-14T07:50:42.817Z,642.00
2023-05-14T07:51:42.856Z,638.00
2023-05-14T07:52:42.821Z,637.00
2023-05-14T07:53:42.827Z,636.00
2023-05-14T07:54:42.841Z,636.00
2023-05-14T07:55:42.831Z,636.00
2023-05-14T07:56:42.873Z,635.00
2023-05-14T07:57:42.846Z,634.00
2023-05-14T07:58:42.857Z,633.00
2023-05-14T07:59:42.854Z,634.00
2023-05-14T08:00:42.838Z,636.00
2023-05-14T08:01:42.844Z,635.00
2023-05-14T08:02:42.928Z,637.00
2023-05-14T08:03:42.942Z,638.00
2023-05-14T08:04:42.833Z,638.00
2023-05-14T08:05:42.818Z,638.00
2023-05-14T08:06:42.841Z,636.00
2023-05-14T08:07:42.808Z,638.00
2023-05-14T08:08:42.837Z,637.00
2023-05-14T08:09:42.818Z,638.00
2023-05-14T08:10:42.844Z,639.00
2023-05-14T08:11:42.837Z,640.00
2023-05-14T08:12:42.856Z,640.00
2023-05-14T08:13:42.810Z,642.00
2023-05-14T08:14:42.815Z,640.00
2023-05-14T08:15:42.822Z,639.00
2023-05-14T08:16:42.906Z,638.00
2023-05-14T08:17:42.913Z,637.00
2023-05-14T08:18:42.943Z,635.00
2023-05-14T08:19:42.870Z,636.00
2023-05-14T08:20:42.905Z,637.00
2023-05-14T08:21:42.954Z,636.00
2023-05-14T08:22:42.975Z,637.00
2023-05-14T08:23:43.020Z,639.00
2023-05-14T08:24:43.044Z,639.00
2023-05-14T08:25:43.082Z,638.00
2023-05-14T08:26:43.195Z,639.00
2023-05-14T08:27:43.210Z,636.00
2023-05-14T08:28:43.271Z,638.00
2023-05-14T08:29:43.327Z,639.00
2023-05-14T08:30:43.389Z,641.00
2023-05-14T08:31:43.468Z,639.00
2023-05-14T08:32:43.554Z,641.00
2023-05-14T08:33:43.597Z,641.00
2023-05-14T08:34:44.134Z,641.00
2023-05-14T08:35:43.696Z,641.00
2023-05-14T08:36:43.760Z,638.00
2023-05-14T08:37:43.824Z,637.00
2023-05-14T08:38:43.880Z,638.00
2023-05-14T08:39:43.932Z,638.00
2023-05-14T08:40:43.991Z,637.00
2023-05-14T08:41:44.057Z,636.00
2023-05-14T08:42:44.118Z,633.00
2023-05-14T08:43:44.164Z,632.00
2023-05-14T08:44:44.257Z,632.00
2023-05-14T08:45:44.272Z,633.00
2023-05-14T08:46:44.295Z,633.00
2023-05-14T08:47:44.378Z,637.00
2023-05-14T08:48:44.416Z,634.00
2023-05-14T08:49:44.461Z,634.00
2023-05-14T08:50:44.483Z,635.00
2023-05-14T08:51:44.538Z,634.00
2023-05-14T08:52:44.578Z,633.00
2023-05-14T08:53:44.620Z,634.00
2023-05-14T08:54:44.648Z,636.00
2023-05-14T08:55:44.692Z,640.00
2023-05-14T08:56:44.719Z,639.00
2023-05-14T08:57:44.787Z,638.00
2023-05-14T08:58:44.791Z,637.00
2023-05-14T08:59:44.834Z,636.00
2023-05-14T09:00:44.868Z,638.00
2023-05-14T09:01:44.917Z,640.00
2023-05-14T09:02:45.007Z,640.00
2023-05-14T09:03:45.007Z,641.00
2023-05-14T09:04:45.015Z,639.00
2023-05-14T09:05:45.040Z,638.00
2023-05-14T09:06:45.080Z,639.00
2023-05-14T09:07:45.116Z,641.00
2023-05-14T09:08:45.150Z,640.00
2023-05-14T09:09:45.168Z,639.00
2023-05-14T09:10:45.210Z,637.00
2023-05-14T09:11:45.232Z,634.00
2023-05-14T09:12:45.268Z,632.00
2023-05-14T09:13:45.380Z,633.00
2023-05-14T09:14:45.324Z,634.00
2023-05-14T09:15:45.356Z,635.00
2023-05-14T09:16:45.434Z,637.00
2023-05-14T09:17:45.474Z,639.00
2023-05-14T09:18:45.536Z,636.00
2023-05-14T09:19:45.479Z,633.00
2023-05-14T09:20:45.520Z,634.00
2023-05-14T09:21:45.543Z,634.00
2023-05-14T09:22:45.580Z,635.00
2023-05-14T09:23:45.606Z,635.00
2023-05-14T09:24:45.628Z,631.00
2023-05-14T09:25:45.659Z,629.00
2023-05-14T09:26:45.684Z,630.00
2023-05-14T09:27:45.717Z,629.00
2023-05-14T09:28:45.762Z,625.00
2023-05-14T09:29:45.785Z,624.00
2023-05-14T09:30:45.844Z,625.00
2023-05-14T09:31:45.947Z,625.00
2023-05-14T09:32:46.047Z,625.00
2023-05-14T09:33:45.916Z,625.00
2023-05-14T09:34:45.960Z,625.00
2023-05-14T09:35:45.982Z,630.00
2023-05-14T09:36:46.008Z,629.00
2023-05-14T09:37:46.074Z,628.00
2023-05-14T09:38:46.074Z,629.00
2023-05-14T09:39:46.107Z,632.00
2023-05-14T09:40:46.149Z,633.00
2023-05-14T09:41:46.197Z,631.00
2023-05-14T09:42:46.216Z,627.00
2023-05-14T09:43:46.238Z,627.00
2023-05-14T09:44:46.270Z,624.00
2023-05-14T09:45:46.299Z,624.00
2023-05-14T09:46:46.329Z,625.00
2023-05-14T09:47:46.510Z,626.00
2023-05-14T09:48:46.465Z,627.00
2023-05-14T09:49:46.433Z,627.00
2023-05-14T09:50:46.463Z,628.00
2023-05-14T09:51:46.492Z,629.00
2023-05-14T09:52:46.515Z,629.00
2023-05-14T09:53:46.551Z,629.00
2023-05-14T09:54:46.597Z,627.00
2023-05-14T09:55:46.623Z,627.00
2023-05-14T09:56:46.653Z,627.00
2023-05-14T09:57:46.710Z,623.00
2023-05-14T09:58:46.717Z,625.00
2023-05-14T09:59:46.754Z,626.00
2023-05-14T10:00:46.814Z,624.00
2023-05-14T10:01:46.839Z,623.00
2023-05-14T10:02:46.934Z,626.00
2023-05-14T10:03:46.916Z,627.00
2023-05-14T10:04:46.988Z,626.00
2023-05-14T10:05:46.967Z,625.00
2023-05-14T10:06:47.003Z,624.00
2023-05-14T10:07:47.057Z,626.00
2023-05-14T10:08:47.058Z,626.00
2023-05-14T10:09:47.101Z,624.00
2023-05-14T10:10:47.137Z,623.00
2023-05-14T10:11:47.158Z,622.00
2023-05-14T10:12:47.237Z,620.00
2023-05-14T10:13:47.223Z,619.00
2023-05-14T10:14:47.302Z,617.00
2023-05-14T10:15:47.317Z,618.00
2023-05-14T10:16:47.376Z,617.00
2023-05-14T10:17:47.429Z,617.00
2023-05-14T10:18:47.455Z,618.00
2023-05-14T10:19:47.477Z,615.00
2023-05-14T10:20:47.496Z,617.00
2023-05-14T10:21:47.555Z,617.00
2023-05-14T10:22:47.597Z,617.00
2023-05-14T10:23:47.623Z,615.00
2023-05-14T10:24:47.678Z,613.00
2023-05-14T10:25:47.695Z,614.00
2023-05-14T10:26:47.749Z,614.00
2023-05-14T10:27:47.777Z,610.00
2023-05-14T10:28:47.809Z,611.00
2023-05-14T10:29:47.859Z,613.00
2023-05-14T10:30:47.879Z,613.00
2023-05-14T10:31:48.028Z,614.00
2023-05-14T10:32:48.002Z,614.00
2023-05-14T10:33:48.001Z,614.00
2023-05-14T10:34:48.037Z,613.00
2023-05-14T10:35:48.079Z,611.00
2023-05-14T10:36:48.128Z,611.00
2023-05-14T10:37:48.168Z,610.00
2023-05-14T10:38:48.202Z,611.00
2023-05-14T10:39:48.243Z,613.00
2023-05-14T10:40:48.296Z,616.00
2023-05-14T10:41:48.335Z,615.00
2023-05-14T10:42:48.382Z,613.00
2023-05-14T10:43:48.413Z,612.00
2023-05-14T10:44:48.472Z,608.00
2023-05-14T10:45:48.528Z,606.00
2023-05-14T10:46:48.567Z,608.00
2023-05-14T10:47:48.792Z,611.00
2023-05-14T10:48:48.640Z,611.00
2023-05-14T10:49:48.670Z,609.00
2023-05-14T10:50:48.741Z,604.00
2023-05-14T10:51:48.770Z,600.00
2023-05-14T10:52:48.822Z,601.00
2023-05-14T10:53:48.847Z,601.00
2023-05-14T10:54:48.907Z,603.00
2023-05-14T10:55:48.939Z,602.00
2023-05-14T10:56:48.986Z,603.00
2023-05-14T10:57:49.041Z,603.00
2023-05-14T10:58:49.081Z,604.00
2023-05-14T10:59:49.137Z,601.00
2023-05-14T11:00:49.177Z,600.00
2023-05-14T11:01:49.283Z,600.00
2023-05-14T11:02:49.278Z,598.00
2023-05-14T11:03:49.362Z,599.00
2023-05-14T11:04:49.364Z,602.00
2023-05-14T11:05:49.414Z,601.00
2023-05-14T11:06:49.437Z,603.00
2023-05-14T11:07:49.487Z,602.00
2023-05-14T11:08:49.540Z,600.00
2023-05-14T11:09:49.584Z,599.00
2023-05-14T11:10:49.623Z,602.00
2023-05-14T11:11:49.677Z,604.00
2023-05-14T11:12:49.737Z,605.00
2023-05-14T11:13:49.749Z,606.00
2023-05-14T11:14:49.803Z,607.00
2023-05-14T11:15:49.893Z,605.00
2023-05-14T11:16:50.025Z,606.00
2023-05-14T11:17:49.980Z,604.00
2023-05-14T11:18:50.006Z,601.00
2023-05-14T11:19:51.219Z,603.00
2023-05-14T11:20:50.052Z,604.00
2023-05-14T11:21:50.135Z,603.00
2023-05-14T11:22:50.191Z,601.00
2023-05-14T11:23:50.206Z,600.00
2023-05-14T11:24:50.246Z,597.00
2023-05-14T11:25:50.321Z,594.00
2023-05-14T11:26:50.340Z,593.00
2023-05-14T11:27:50.399Z,593.00
2023-05-14T11:28:50.460Z,593.00
2023-05-14T11:29:50.490Z,593.00
2023-05-14T11:30:50.541Z,593.00
2023-05-14T11:31:50.632Z,592.00
2023-05-14T11:32:50.762Z,594.00
2023-05-14T11:33:50.689Z,594.00
2023-05-14T11:34:50.729Z,594.00
2023-05-14T11:35:50.790Z,594.00
2023-05-14T11:36:50.840Z,591.00
2023-05-14T11:37:50.891Z,593.00
2023-05-14T11:38:50.957Z,594.00
2023-05-14T11:39:50.995Z,594.00
2023-05-14T11:40:51.046Z,593.00
2023-05-14T11:41:51.139Z,593.00
2023-05-14T11:42:51.176Z,594.00
2023-05-14T11:43:51.249Z,594.00
2023-05-14T11:44:51.283Z,594.00
2023-05-14T11:45:51.396Z,594.00
2023-05-14T11:46:51.386Z,593.00
2023-05-14T11:47:51.506Z,592.00
2023-05-14T11:48:51.493Z,589.00
2023-05-14T11:49:51.541Z,586.00
2023-05-14T11:50:51.603Z,583.00
2023-05-14T11:51:51.665Z,582.00
2023-05-14T11:52:51.708Z,582.00
2023-05-14T11:53:51.799Z,584.00
2023-05-14T11:54:51.856Z,584.00
2023-05-14T11:55:51.888Z,585.00
2023-05-14T11:56:51.956Z,585.00
2023-05-14T11:57:52.040Z,582.00
2023-05-14T11:58:52.053Z,581.00
2023-05-14T11:59:52.118Z,581.00
2023-05-14T12:00:52.166Z,582.00
2023-05-14T12:01:52.220Z,582.00
2023-05-14T12:02:52.350Z,581.00
2023-05-14T12:03:52.465Z,579.00
2023-05-14T12:04:52.461Z,580.00
2023-05-14T12:05:52.464Z,581.00
2023-05-14T12:06:52.530Z,582.00
2023-05-14T12:07:52.584Z,579.00
2023-05-14T12:08:52.662Z,579.00
2023-05-14T12:09:52.699Z,584.00
2023-05-14T12:10:52.778Z,586.00
2023-05-14T12:11:52.808Z,585.00
2023-05-14T12:12:52.892Z,584.00
2023-05-14T12:13:52.939Z,586.00
2023-05-14T12:14:52.988Z,584.00
2023-05-14T12:15:53.098Z,584.00
2023-05-14T12:16:53.105Z,581.00
2023-05-14T12:17:53.234Z,583.00
2023-05-14T12:18:53.236Z,581.00
2023-05-14T12:19:53.308Z,580.00
2023-05-14T12:20:53.373Z,580.00
2023-05-14T12:21:53.401Z,580.00
2023-05-14T12:22:53.484Z,580.00
2023-05-14T12:23:53.531Z,578.00
2023-05-14T12:24:53.581Z,578.00
2023-05-14T12:25:53.643Z,575.00
2023-05-14T12:26:53.703Z,578.00
2023-05-14T12:27:53.787Z,579.00
2023-05-14T12:28:53.807Z,579.00